Time;durP1;ratioP1;P1;durP2;ratioP2;P2;SDS_P1;SDS_P2;PMS_P1;PMS_P2;Temp;Humidity;BMP_temperature;BMP_pressure;BME280_temperature;BME280_humidity;BME280_pressure;Samples;Min_cycle;Max_cycle;Signal;HPM_P1;HPM_P2
2021/03/27 00:02:00;;;;;;;0.17;0.17;;;;;;;;;;5036142;28;20199;-59
2021/03/27 00:04:29;;;;;;;3.80;0.30;;;;;;;;;;5035391;28;20711;-60
2021/03/27 00:07:11;;;;;;;0.00;0.00;;;;;;;;;;5037168;28;20744;-59
2021/03/27 00:09:41;;;;;;;0.83;0.63;;;;;;;;;;5037432;28;20194;-58
2021/03/27 00:12:16;;;;;;;0.57;0.57;;;;;;;;;;5037514;28;20184;-58
2021/03/27 00:14:48;;;;;;;21.77;0.67;;;;;;;;;;5036915;28;20235;-59
2021/03/27 00:17:20;;;;;;;0.43;0.40;;;;;;;;;;5036856;28;20267;-58
2021/03/27 00:19:51;;;;;;;1.27;0.60;;;;;;;;;;5036749;28;20206;-58
2021/03/27 00:22:20;;;;;;;2.73;1.00;;;;;;;;;;5037686;28;20764;-59
2021/03/27 00:25:00;;;;;;;0.00;0.00;;;;;;;;;;5037071;28;20437;-59
2021/03/27 00:27:29;;;;;;;0.10;0.10;;;;;;;;;;5049974;28;20261;-58
2021/03/27 00:29:59;;;;;;;0.10;0.10;;;;;;;;;;5037397;28;20183;-58
2021/03/27 00:32:29;;;;;;;0.00;0.00;;;;;;;;;;5035296;28;20218;-59
2021/03/27 00:34:57;;;;;;;2.67;2.47;;;;;;;;;;5037096;28;20215;-58
2021/03/27 00:37:26;;;;;;;0.97;0.50;;;;;;;;;;5037230;28;20191;-59
2021/03/27 00:39:54;;;;;;;0.37;0.27;;;;;;;;;;5039350;28;20184;-58
2021/03/27 00:42:25;;;;;;;0.10;0.10;;;;;;;;;;5037811;28;20684;-58
2021/03/27 00:44:53;;;;;;;1.23;0.57;;;;;;;;;;5036324;28;20187;-58
2021/03/27 00:47:22;;;;;;;0.17;0.17;;;;;;;;;;5035245;28;20275;-58
2021/03/27 00:49:54;;;;;;;0.10;0.10;;;;;;;;;;5035015;28;20966;-58
2021/03/27 00:52:22;;;;;;;4.47;1.50;;;;;;;;;;5036328;28;20273;-58
2021/03/27 00:55:06;;;;;;;0.20;0.20;;;;;;;;;;5035794;28;20265;-58
2021/03/27 00:57:34;;;;;;;1.33;1.10;;;;;;;;;;5033151;28;20171;-58
2021/03/27 01:00:00;;;;;;;4.43;0.30;;;;;;;;;;5036445;28;20206;-58
2021/03/27 01:02:28;;;;;;;3.73;2.27;;;;;;;;;;5038025;28;21004;-58
2021/03/27 01:04:57;;;;;;;3.40;1.93;;;;;;;;;;5033001;28;20187;-58
2021/03/27 01:07:24;;;;;;;1.20;0.63;;;;;;;;;;5035353;28;20669;-58
2021/03/27 01:10:07;;;;;;;47.23;2.43;;;;;;;;;;5036491;28;20195;-58
2021/03/27 01:12:40;;;;;;;1.80;0.63;;;;;;;;;;5036571;28;20209;-58
2021/03/27 01:15:12;;;;;;;2.80;1.97;;;;;;;;;;5038308;28;20783;-58
2021/03/27 01:17:42;;;;;;;1.93;0.83;;;;;;;;;;5036349;28;20199;-58
2021/03/27 01:20:15;;;;;;;2.70;0.63;;;;;;;;;;5039852;28;20172;-58
2021/03/27 01:22:44;;;;;;;0.83;0.83;;;;;;;;;;5034173;28;20186;-58
2021/03/27 01:25:11;;;;;;;11.67;2.00;;;;;;;;;;5036259;28;20943;-59
2021/03/27 01:28:08;;;;;;;0.10;0.10;;;;;;;;;;5032342;28;20704;-58
2021/03/27 01:30:40;;;;;;;0.63;0.60;;;;;;;;;;4999231;28;20846;-58
2021/03/27 01:33:32;;;;;;;0.10;0.10;;;;;;;;;;5036627;28;20187;-58
2021/03/27 01:36:05;;;;;;;6.80;1.57;;;;;;;;;;5036066;28;20895;-58
2021/03/27 01:38:47;;;;;;;0.10;0.10;;;;;;;;;;5031700;28;20203;-58
2021/03/27 01:41:22;;;;;;;0.43;0.43;;;;;;;;;;5036570;28;20178;-58
2021/03/27 01:44:04;;;;;;;0.13;0.13;;;;;;;;;;5034280;28;20183;-58
2021/03/27 01:46:49;;;;;;;0.10;0.10;;;;;;;;;;5031994;28;20494;-58
2021/03/27 01:49:33;;;;;;;4.07;3.00;;;;;;;;;;5033234;28;20257;-58
2021/03/27 01:52:13;;;;;;;1.07;0.97;;;;;;;;;;5034156;28;20710;-58
2021/03/27 01:54:56;;;;;;;1.63;1.10;;;;;;;;;;5037958;28;20707;-58
2021/03/27 01:57:29;;;;;;;0.73;0.73;;;;;;;;;;5031825;28;20813;-58
2021/03/27 01:59:58;;;;;;;0.90;0.50;;;;;;;;;;5032766;28;20196;-58
2021/03/27 02:02:33;;;;;;;1.60;0.93;;;;;;;;;;5032053;28;20180;-58
2021/03/27 02:05:07;;;;;;;2.17;0.93;;;;;;;;;;5029486;28;20212;-58
2021/03/27 02:07:41;;;;;;;0.17;0.17;;;;;;;;;;5030619;28;20195;-58
2021/03/27 02:10:14;;;;;;;0.57;0.57;;;;;;;;;;5031880;28;20737;-58
2021/03/27 02:12:45;;;;;;;0.50;0.30;;;;;;;;;;5036357;28;20187;-59
2021/03/27 02:15:16;;;;;;;1.70;1.07;;;;;;;;;;5034973;28;20440;-58
2021/03/27 02:17:50;;;;;;;0.00;0.00;;;;;;;;;;5030046;28;20183;-58
2021/03/27 02:20:35;;;;;;;0.70;0.70;;;;;;;;;;5028452;28;20176;-58
2021/03/27 02:23:02;;;;;;;0.10;0.10;;;;;;;;;;5036038;28;20191;-58
2021/03/27 02:25:28;;;;;;;2.27;0.50;;;;;;;;;;5041617;28;20275;-58
2021/03/27 02:28:01;;;;;;;0.63;0.20;;;;;;;;;;5046854;28;20187;-58
2021/03/27 02:30:29;;;;;;;3.30;0.40;;;;;;;;;;5041427;28;20194;-58
2021/03/27 02:33:01;;;;;;;8.90;1.37;;;;;;;;;;5039978;28;21045;-58
2021/03/27 02:35:36;;;;;;;0.10;0.10;;;;;;;;;;5037489;28;20302;-58
2021/03/27 02:38:20;;;;;;;1.10;0.60;;;;;;;;;;5034730;28;20211;-58
2021/03/27 02:41:10;;;;;;;0.90;0.47;;;;;;;;;;5036856;28;20172;-58
2021/03/27 02:43:44;;;;;;;0.23;0.23;;;;;;;;;;5032248;28;20746;-58
2021/03/27 02:46:23;;;;;;;0.33;0.33;;;;;;;;;;5033280;28;20276;-58
2021/03/27 02:48:50;;;;;;;0.20;0.20;;;;;;;;;;5034601;28;20199;-58
2021/03/27 02:51:32;;;;;;;2.43;0.33;;;;;;;;;;5034678;28;20717;-58
2021/03/27 02:54:16;;;;;;;0.10;0.10;;;;;;;;;;5032798;28;20253;-58
2021/03/27 02:57:00;;;;;;;0.20;0.20;;;;;;;;;;5034600;28;20201;-58
2021/03/27 02:59:26;;;;;;;1.90;0.67;;;;;;;;;;5032407;28;20447;-58
2021/03/27 03:02:11;;;;;;;0.63;0.63;;;;;;;;;;5032381;28;20199;-58
2021/03/27 03:05:00;;;;;;;0.77;0.40;;;;;;;;;;5033878;28;20430;-58
2021/03/27 03:07:34;;;;;;;0.20;0.20;;;;;;;;;;5028351;28;20281;-58
2021/03/27 03:10:13;;;;;;;6.43;4.10;;;;;;;;;;5032478;28;20187;-58
2021/03/27 03:12:39;;;;;;;1.60;0.27;;;;;;;;;;5038327;28;20253;-58
2021/03/27 03:15:24;;;;;;;0.20;0.20;;;;;;;;;;5033441;28;20195;-58
2021/03/27 03:18:01;;;;;;;0.10;0.10;;;;;;;;;;5035210;28;20627;-58
2021/03/27 03:20:39;;;;;;;0.10;0.10;;;;;;;;;;5032682;28;20413;-58
2021/03/27 03:23:13;;;;;;;3.73;0.63;;;;;;;;;;5028630;28;22104;-58
2021/03/27 03:25:48;;;;;;;1.10;0.50;;;;;;;;;;5046153;28;20191;-58
2021/03/27 03:28:18;;;;;;;0.10;0.10;;;;;;;;;;5064572;28;20206;-58
2021/03/27 03:30:53;;;;;;;0.30;0.30;;;;;;;;;;5037972;28;20183;-58
2021/03/27 03:33:40;;;;;;;0.10;0.10;;;;;;;;;;5030793;28;20230;-58
2021/03/27 03:36:26;;;;;;;0.10;0.10;;;;;;;;;;5032972;28;20187;-58
2021/03/27 03:39:11;;;;;;;0.90;0.47;;;;;;;;;;5020490;28;20306;-58
2021/03/27 03:41:40;;;;;;;0.30;0.30;;;;;;;;;;5031512;28;20183;-58
2021/03/27 03:44:10;;;;;;;0.83;0.30;;;;;;;;;;5032394;28;20832;-58
2021/03/27 03:46:46;;;;;;;0.63;0.57;;;;;;;;;;5032258;28;20223;-58
2021/03/27 03:49:21;;;;;;;0.30;0.30;;;;;;;;;;5024555;28;20809;-58
2021/03/27 03:51:48;;;;;;;0.13;0.13;;;;;;;;;;5033819;28;20236;-58
2021/03/27 03:54:21;;;;;;;0.10;0.10;;;;;;;;;;5034139;28;20198;-58
2021/03/27 03:56:47;;;;;;;0.67;0.67;;;;;;;;;;5033465;28;20190;-58
2021/03/27 03:59:13;;;;;;;3.50;1.23;;;;;;;;;;5036934;28;20187;-58
2021/03/27 04:01:46;;;;;;;0.37;0.20;;;;;;;;;;5033151;28;20203;-58
2021/03/27 04:04:33;;;;;;;3.77;0.43;;;;;;;;;;5031570;28;20173;-57
2021/03/27 04:07:11;;;;;;;1.37;0.60;;;;;;;;;;5033887;28;22133;-58
2021/03/27 04:09:42;;;;;;;3.60;0.53;;;;;;;;;;5029637;28;20194;-57
2021/03/27 04:12:14;;;;;;;1.60;1.50;;;;;;;;;;5030867;28;20487;-57
2021/03/27 04:14:50;;;;;;;0.33;0.33;;;;;;;;;;5032132;28;20229;-57
2021/03/27 04:17:16;;;;;;;0.87;0.60;;;;;;;;;;5034402;28;20671;-58
2021/03/27 04:19:45;;;;;;;0.70;0.70;;;;;;;;;;5034351;28;20722;-58
2021/03/27 04:22:15;;;;;;;1.30;1.20;;;;;;;;;;5031910;28;20362;-58
2021/03/27 04:24:50;;;;;;;0.30;0.30;;;;;;;;;;5025044;28;20662;-58
2021/03/27 04:27:31;;;;;;;0.00;0.00;;;;;;;;;;5028793;28;20293;-58
2021/03/27 04:30:24;;;;;;;0.43;0.43;;;;;;;;;;5028136;28;20194;-57
2021/03/27 04:32:56;;;;;;;2.43;0.97;;;;;;;;;;5021752;28;20203;-57
2021/03/27 04:35:26;;;;;;;0.10;0.10;;;;;;;;;;5032245;28;20700;-57
2021/03/27 04:37:52;;;;;;;0.00;0.00;;;;;;;;;;5033903;28;20184;-57
2021/03/27 04:40:25;;;;;;;0.57;0.57;;;;;;;;;;5035697;28;20675;-57
2021/03/27 04:42:51;;;;;;;0.20;0.20;;;;;;;;;;5033588;28;20179;-57
2021/03/27 04:45:38;;;;;;;0.40;0.40;;;;;;;;;;5033852;28;20256;-57
2021/03/27 04:48:17;;;;;;;0.37;0.37;;;;;;;;;;5034782;28;20775;-58
2021/03/27 04:50:50;;;;;;;0.50;0.50;;;;;;;;;;5030485;28;20187;-58
2021/03/27 04:53:35;;;;;;;3.20;0.63;;;;;;;;;;5028618;28;20187;-57
2021/03/27 04:56:09;;;;;;;0.80;0.80;;;;;;;;;;5030335;28;20183;-57
2021/03/27 04:58:35;;;;;;;0.63;0.40;;;;;;;;;;5030324;28;20827;-57
2021/03/27 05:01:17;;;;;;;12.80;0.77;;;;;;;;;;5032551;28;20179;-57
2021/03/27 05:03:51;;;;;;;4.17;0.30;;;;;;;;;;5031091;28;20237;-58
2021/03/27 05:06:22;;;;;;;0.17;0.17;;;;;;;;;;5032684;28;20384;-58
2021/03/27 05:08:59;;;;;;;0.27;0.27;;;;;;;;;;5028948;28;20198;-57
2021/03/27 05:11:45;;;;;;;1.97;0.30;;;;;;;;;;5030466;28;20582;-57
2021/03/27 05:14:21;;;;;;;0.10;0.10;;;;;;;;;;5033944;28;20320;-58
2021/03/27 05:17:07;;;;;;;0.00;0.00;;;;;;;;;;5026755;28;20743;-58
2021/03/27 05:19:46;;;;;;;5.77;2.20;;;;;;;;;;5027385;28;20577;-58
2021/03/27 05:22:21;;;;;;;0.93;0.70;;;;;;;;;;5032570;28;20568;-57
2021/03/27 05:24:54;;;;;;;0.10;0.10;;;;;;;;;;5036623;28;20835;-58
2021/03/27 05:27:39;;;;;;;0.40;0.40;;;;;;;;;;5029412;28;20983;-57
2021/03/27 05:30:18;;;;;;;0.10;0.10;;;;;;;;;;5032543;28;20214;-57
2021/03/27 05:33:03;;;;;;;5.00;1.37;;;;;;;;;;5032262;28;20194;-57
2021/03/27 05:35:30;;;;;;;0.00;0.00;;;;;;;;;;5029904;28;20220;-57
2021/03/27 05:38:09;;;;;;;0.00;0.00;;;;;;;;;;5032159;28;20694;-58
2021/03/27 05:40:54;;;;;;;0.10;0.10;;;;;;;;;;5031169;28;20190;-58
2021/03/27 05:43:20;;;;;;;0.83;0.73;;;;;;;;;;5035468;28;20198;-57
2021/03/27 05:46:05;;;;;;;0.53;0.53;;;;;;;;;;5036641;28;20700;-57
2021/03/27 05:48:50;;;;;;;0.10;0.10;;;;;;;;;;5032760;28;20199;-58
2021/03/27 05:51:35;;;;;;;0.10;0.10;;;;;;;;;;5033366;28;20175;-57
2021/03/27 05:54:04;;;;;;;0.10;0.10;;;;;;;;;;5034613;28;20222;-57
2021/03/27 05:56:34;;;;;;;0.77;0.63;;;;;;;;;;5035053;28;20259;-57
2021/03/27 05:59:19;;;;;;;0.10;0.10;;;;;;;;;;5039618;28;21082;-57
2021/03/27 06:01:49;;;;;;;0.97;0.60;;;;;;;;;;5038133;28;20285;-58
2021/03/27 06:04:16;;;;;;;8.20;0.40;;;;;;;;;;5039542;28;20997;-58
2021/03/27 06:06:51;;;;;;;1.27;1.10;;;;;;;;;;5038112;28;21028;-57
2021/03/27 06:09:18;;;;;;;0.20;0.20;;;;;;;;;;5037512;28;20816;-58
2021/03/27 06:11:44;;;;;;;0.50;0.40;;;;;;;;;;5037029;28;20311;-57
2021/03/27 06:14:30;;;;;;;1.40;0.63;;;;;;;;;;5039427;28;20231;-57
2021/03/27 06:16:56;;;;;;;0.33;0.33;;;;;;;;;;5039632;28;20540;-57
2021/03/27 06:19:29;;;;;;;12.67;1.23;;;;;;;;;;5035807;28;20699;-58
2021/03/27 06:22:13;;;;;;;2.10;0.53;;;;;;;;;;5038502;28;20703;-57
2021/03/27 06:24:39;;;;;;;0.10;0.10;;;;;;;;;;5040318;28;20957;-57
2021/03/27 06:27:06;;;;;;;0.43;0.30;;;;;;;;;;5037141;28;20700;-57
2021/03/27 06:29:51;;;;;;;0.10;0.10;;;;;;;;;;5038501;28;20206;-57
2021/03/27 06:32:32;;;;;;;0.10;0.10;;;;;;;;;;5036070;28;20230;-57
2021/03/27 06:35:17;;;;;;;0.10;0.10;;;;;;;;;;5034310;28;20207;-57
2021/03/27 06:37:49;;;;;;;3.30;0.30;;;;;;;;;;5032300;28;20735;-57
2021/03/27 06:40:24;;;;;;;0.30;0.30;;;;;;;;;;5034019;28;20219;-58
2021/03/27 06:42:51;;;;;;;0.10;0.10;;;;;;;;;;5038857;28;20270;-58
2021/03/27 06:45:17;;;;;;;0.20;0.20;;;;;;;;;;5037373;28;20211;-57
2021/03/27 06:48:02;;;;;;;1.10;1.07;;;;;;;;;;5038112;28;20594;-57
2021/03/27 06:50:44;;;;;;;0.10;0.10;;;;;;;;;;5035983;28;20304;-58
2021/03/27 06:53:10;;;;;;;2.80;1.13;;;;;;;;;;5034730;28;20924;-57
2021/03/27 06:55:43;;;;;;;1.50;0.37;;;;;;;;;;5033101;28;20965;-57
2021/03/27 06:58:18;;;;;;;1.13;0.53;;;;;;;;;;5037356;28;20203;-58
2021/03/27 07:00:57;;;;;;;3.33;0.43;;;;;;;;;;5038384;28;20179;-58
2021/03/27 07:03:42;;;;;;;0.30;0.30;;;;;;;;;;5037103;28;20176;-58
2021/03/27 07:06:08;;;;;;;0.20;0.20;;;;;;;;;;5037954;28;20180;-57
2021/03/27 07:08:44;;;;;;;0.10;0.10;;;;;;;;;;5035012;28;20317;-57
2021/03/27 07:11:29;;;;;;;14.87;1.60;;;;;;;;;;5038608;28;20652;-58
2021/03/27 07:14:14;;;;;;;0.30;0.30;;;;;;;;;;5032157;28;20237;-58
2021/03/27 07:16:46;;;;;;;0.63;0.53;;;;;;;;;;5035384;28;20263;-58
2021/03/27 07:19:13;;;;;;;1.43;1.37;;;;;;;;;;5036464;28;20186;-58
2021/03/27 07:22:03;;;;;;;1.17;0.30;;;;;;;;;;5038959;28;20647;-57
2021/03/27 07:24:36;;;;;;;0.20;0.20;;;;;;;;;;5029805;28;20249;-57
2021/03/27 07:27:35;;;;;;;2.10;0.50;;;;;;;;;;5033470;28;20653;-57
2021/03/27 07:30:13;;;;;;;0.40;0.20;;;;;;;;;;5023209;28;20306;-57
2021/03/27 07:32:59;;;;;;;6.80;0.77;;;;;;;;;;5033852;28;20186;-57
2021/03/27 07:35:45;;;;;;;6.20;1.37;;;;;;;;;;5033321;28;20206;-57
2021/03/27 07:38:29;;;;;;;0.00;0.00;;;;;;;;;;5032969;28;20182;-58
2021/03/27 07:41:02;;;;;;;1.70;0.57;;;;;;;;;;5036316;28;20205;-58
2021/03/27 07:43:41;;;;;;;1.37;0.73;;;;;;;;;;5035013;28;20700;-58
2021/03/27 07:46:13;;;;;;;1.70;0.33;;;;;;;;;;5031963;28;21007;-57
2021/03/27 07:48:40;;;;;;;0.10;0.10;;;;;;;;;;5034064;28;20726;-58
2021/03/27 07:51:25;;;;;;;0.20;0.20;;;;;;;;;;5034501;28;20901;-57
2021/03/27 07:54:09;;;;;;;0.10;0.10;;;;;;;;;;5030642;28;20214;-58
2021/03/27 07:56:45;;;;;;;2.00;1.03;;;;;;;;;;5033580;28;21001;-57
2021/03/27 07:59:12;;;;;;;11.73;0.60;;;;;;;;;;5033486;28;20811;-57
2021/03/27 08:02:04;;;;;;;0.00;0.00;;;;;;;;;;5035067;28;20209;-57
2021/03/27 08:04:34;;;;;;;0.10;0.10;;;;;;;;;;5033342;28;20195;-58
2021/03/27 08:07:08;;;;;;;0.50;0.50;;;;;;;;;;5033963;28;20206;-58
2021/03/27 08:09:46;;;;;;;0.00;0.00;;;;;;;;;;5031504;28;20184;-57
2021/03/27 08:12:31;;;;;;;0.00;0.00;;;;;;;;;;5031824;28;20262;-58
2021/03/27 08:15:06;;;;;;;0.33;0.33;;;;;;;;;;5031290;28;20716;-58
2021/03/27 08:17:35;;;;;;;1.40;0.73;;;;;;;;;;5029435;28;20187;-57
2021/03/27 08:20:20;;;;;;;0.73;0.70;;;;;;;;;;5031022;28;20176;-57
2021/03/27 08:23:05;;;;;;;0.10;0.10;;;;;;;;;;5029730;28;20178;-57
2021/03/27 08:25:31;;;;;;;0.40;0.40;;;;;;;;;;5028925;28;20193;-57
2021/03/27 08:28:12;;;;;;;0.03;0.03;;;;;;;;;;5033040;28;20897;-58
2021/03/27 08:30:57;;;;;;;9.37;0.43;;;;;;;;;;5032266;28;20253;-57
2021/03/27 08:33:36;;;;;;;0.20;0.20;;;;;;;;;;5035860;28;20674;-57
2021/03/27 08:36:20;;;;;;;5.20;0.67;;;;;;;;;;5035315;28;20192;-58
2021/03/27 08:38:46;;;;;;;0.20;0.20;;;;;;;;;;5033592;28;20707;-57
2021/03/27 08:41:24;;;;;;;0.23;0.23;;;;;;;;;;5037760;28;20225;-58
2021/03/27 08:44:06;;;;;;;0.00;0.00;;;;;;;;;;5031639;28;20182;-58
2021/03/27 08:46:51;;;;;;;0.00;0.00;;;;;;;;;;5033984;28;21098;-58
2021/03/27 08:49:37;;;;;;;0.10;0.10;;;;;;;;;;5032344;28;20186;-57
2021/03/27 08:52:27;;;;;;;2.93;2.73;;;;;;;;;;5032379;28;20179;-58
2021/03/27 08:55:16;;;;;;;0.97;0.50;;;;;;;;;;5031225;28;20725;-58
2021/03/27 08:57:55;;;;;;;1.40;0.57;;;;;;;;;;5031859;28;20232;-58
2021/03/27 09:00:25;;;;;;;0.27;0.27;;;;;;;;;;5033763;28;20177;-58
2021/03/27 09:03:03;;;;;;;5.33;1.13;;;;;;;;;;5030170;28;20653;-58
2021/03/27 09:05:30;;;;;;;0.20;0.20;;;;;;;;;;5029675;28;20657;-57
2021/03/27 09:07:59;;;;;;;0.10;0.10;;;;;;;;;;5032268;28;20870;-58
2021/03/27 09:10:31;;;;;;;0.10;0.10;;;;;;;;;;5035289;28;20930;-57
2021/03/27 09:13:14;;;;;;;0.30;0.30;;;;;;;;;;5033063;28;20237;-57
2021/03/27 09:15:44;;;;;;;0.57;0.57;;;;;;;;;;5036042;28;20187;-57
2021/03/27 09:18:20;;;;;;;0.10;0.10;;;;;;;;;;5030995;28;20191;-57
2021/03/27 09:20:49;;;;;;;0.97;0.97;;;;;;;;;;5033337;28;20190;-57
2021/03/27 09:23:18;;;;;;;0.50;0.40;;;;;;;;;;5030683;28;20175;-57
2021/03/27 13:11:17;;;;;;;5.97;5.53;;;;;;;;;;5067847;27;20640;-59
2021/03/27 13:13:53;;;;;;;0.03;0.03;;;;;;;;;;5069752;28;20199;-59
2021/03/27 13:16:46;;;;;;;0.00;0.00;;;;;;;;;;5067768;28;20175;-59
2021/03/27 13:19:12;;;;;;;0.23;0.23;;;;;;;;;;5071841;28;20930;-58
2021/03/27 13:21:45;;;;;;;4.33;1.00;;;;;;;;;;5069527;28;20182;-59
2021/03/27 13:24:22;;;;;;;0.10;0.10;;;;;;;;;;5066038;28;20584;-59
2021/03/27 13:26:52;;;;;;;0.87;0.40;;;;;;;;;;5068935;28;20318;-59
2021/03/27 13:29:33;;;;;;;3.93;0.30;;;;;;;;;;5078535;28;20208;-60
2021/03/27 13:32:01;;;;;;;0.10;0.10;;;;;;;;;;5076315;28;20176;-59
2021/03/27 13:34:34;;;;;;;3.73;1.97;;;;;;;;;;5065267;28;20220;-59
2021/03/27 13:37:06;;;;;;;0.63;0.47;;;;;;;;;;5071727;28;20178;-59
2021/03/27 13:39:40;;;;;;;1.70;0.53;;;;;;;;;;5067098;28;20198;-59
2021/03/27 13:42:25;;;;;;;0.00;0.00;;;;;;;;;;5074259;28;20212;-59
2021/03/27 13:44:55;;;;;;;0.00;0.00;;;;;;;;;;5068809;28;20184;-59
2021/03/27 13:47:30;;;;;;;2.07;0.53;;;;;;;;;;5061818;28;20550;-59
2021/03/27 13:50:01;;;;;;;3.63;0.97;;;;;;;;;;5072775;28;20209;-59
2021/03/27 13:52:45;;;;;;;0.73;0.20;;;;;;;;;;5075107;28;20186;-59
2021/03/27 13:55:18;;;;;;;0.73;0.20;;;;;;;;;;5061031;28;20786;-59
2021/03/27 13:57:57;;;;;;;2.53;1.03;;;;;;;;;;5055042;28;20292;-59
2021/03/27 14:00:27;;;;;;;13.13;0.50;;;;;;;;;;5058672;28;20193;-59
2021/03/27 14:03:02;;;;;;;0.47;0.47;;;;;;;;;;5052328;28;20198;-59
2021/03/27 14:05:44;;;;;;;0.00;0.00;;;;;;;;;;5061894;28;20186;-59
2021/03/27 14:08:13;;;;;;;0.87;0.47;;;;;;;;;;5055139;28;20191;-60
2021/03/27 14:10:47;;;;;;;0.63;0.63;;;;;;;;;;5052703;28;20258;-59
2021/03/27 14:13:19;;;;;;;0.90;0.30;;;;;;;;;;5052389;28;20194;-59
2021/03/27 14:16:02;;;;;;;0.00;0.00;;;;;;;;;;5052327;28;20964;-59
2021/03/27 14:18:31;;;;;;;0.00;0.00;;;;;;;;;;5069191;28;20174;-59
2021/03/27 14:21:07;;;;;;;14.43;0.73;;;;;;;;;;5066675;28;20189;-59
2021/03/27 14:23:52;;;;;;;0.33;0.30;;;;;;;;;;5058074;28;20293;-59
2021/03/27 14:26:24;;;;;;;0.63;0.63;;;;;;;;;;5057000;28;20190;-59
2021/03/27 14:28:59;;;;;;;2.50;0.07;;;;;;;;;;5044764;28;20210;-60
2021/03/27 14:31:45;;;;;;;3.40;0.63;;;;;;;;;;5055362;28;20181;-59
2021/03/27 14:34:11;;;;;;;0.00;0.00;;;;;;;;;;5057724;28;20186;-59
2021/03/27 14:36:41;;;;;;;1.90;1.00;;;;;;;;;;5057281;28;20195;-59
2021/03/27 14:39:22;;;;;;;0.10;0.10;;;;;;;;;;5057649;28;20690;-59
2021/03/27 14:42:07;;;;;;;0.00;0.00;;;;;;;;;;5057433;28;20189;-59
2021/03/27 14:44:40;;;;;;;0.63;0.63;;;;;;;;;;5057326;28;20389;-59
2021/03/27 14:47:13;;;;;;;0.00;0.00;;;;;;;;;;5057267;28;20207;-59
2021/03/27 14:49:56;;;;;;;2.63;0.20;;;;;;;;;;5050713;28;20245;-59
2021/03/27 14:52:31;;;;;;;2.63;0.43;;;;;;;;;;5046864;28;20175;-59
2021/03/27 14:54:58;;;;;;;0.00;0.00;;;;;;;;;;5051911;28;20509;-59
2021/03/27 14:57:27;;;;;;;0.60;0.23;;;;;;;;;;5039119;28;20190;-59
2021/03/27 15:00:17;;;;;;;1.40;0.10;;;;;;;;;;5038851;28;20908;-59
2021/03/27 15:02:46;;;;;;;0.10;0.10;;;;;;;;;;5050445;28;20544;-59
2021/03/27 15:05:16;;;;;;;0.10;0.10;;;;;;;;;;5054671;28;20266;-59
2021/03/27 15:07:46;;;;;;;0.10;0.10;;;;;;;;;;5055107;28;20861;-59
2021/03/27 15:10:31;;;;;;;0.00;0.00;;;;;;;;;;5052268;28;20235;-60
2021/03/27 15:13:10;;;;;;;0.30;0.30;;;;;;;;;;5056332;28;20236;-59
2021/03/27 15:15:40;;;;;;;0.10;0.10;;;;;;;;;;5040965;28;20183;-59
2021/03/27 15:18:21;;;;;;;0.63;0.17;;;;;;;;;;5057019;28;20797;-58
2021/03/27 15:20:57;;;;;;;0.83;0.13;;;;;;;;;;5048805;28;20179;-58
2021/03/27 15:23:50;;;;;;;0.93;0.93;;;;;;;;;;5040806;28;20217;-59
2021/03/27 15:29:22;;;;;;;2.43;0.40;;;;;;;;;;5042981;28;20218;-59
2021/03/27 15:31:55;;;;;;;0.00;0.00;;;;;;;;;;5044610;28;20349;-58
2021/03/27 15:34:24;;;;;;;0.77;0.70;;;;;;;;;;5042558;28;20249;-59
2021/03/27 15:36:58;;;;;;;1.60;0.93;;;;;;;;;;5046854;28;20413;-59
2021/03/27 15:39:37;;;;;;;0.00;0.00;;;;;;;;;;5042369;28;20259;-59
2021/03/27 15:42:04;;;;;;;0.63;0.30;;;;;;;;;;5043954;28;20191;-58
2021/03/27 15:44:30;;;;;;;7.13;1.47;;;;;;;;;;5040911;28;20866;-58
2021/03/27 15:47:15;;;;;;;2.10;0.83;;;;;;;;;;5050202;28;20190;-58
2021/03/27 15:49:42;;;;;;;9.70;0.53;;;;;;;;;;5046583;28;20204;-58
2021/03/27 15:52:27;;;;;;;0.67;0.20;;;;;;;;;;5044137;28;20179;-58
2021/03/27 15:55:01;;;;;;;1.03;0.33;;;;;;;;;;5037677;28;20187;-59
2021/03/27 15:57:30;;;;;;;0.13;0.13;;;;;;;;;;5045348;28;20639;-59
2021/03/27 16:00:17;;;;;;;3.27;0.57;;;;;;;;;;5050813;28;20178;-59
2021/03/27 16:02:43;;;;;;;0.00;0.00;;;;;;;;;;5049950;28;20183;-59
2021/03/27 16:05:19;;;;;;;0.00;0.00;;;;;;;;;;5045973;28;20186;-59
2021/03/27 16:07:49;;;;;;;0.13;0.10;;;;;;;;;;5042194;28;20210;-59
2021/03/27 16:10:15;;;;;;;5.00;0.73;;;;;;;;;;5044368;28;20237;-58
2021/03/27 16:12:50;;;;;;;1.50;0.27;;;;;;;;;;5039868;28;20210;-59
2021/03/27 16:15:19;;;;;;;4.60;0.40;;;;;;;;;;5042431;28;20188;-58
2021/03/27 16:17:49;;;;;;;0.77;0.30;;;;;;;;;;5044772;28;20851;-58
2021/03/27 16:20:24;;;;;;;12.37;1.17;;;;;;;;;;5042376;28;20410;-59
2021/03/27 16:22:50;;;;;;;9.73;3.77;;;;;;;;;;5042416;28;20498;-59
2021/03/27 16:25:26;;;;;;;0.63;0.60;;;;;;;;;;5049484;28;20717;-60
2021/03/27 16:27:55;;;;;;;0.00;0.00;;;;;;;;;;5048708;28;20185;-60
2021/03/27 16:30:27;;;;;;;0.07;0.07;;;;;;;;;;5047198;28;20263;-60
2021/03/27 16:33:12;;;;;;;1.97;0.43;;;;;;;;;;5049714;28;20179;-60
2021/03/27 16:35:39;;;;;;;0.00;0.00;;;;;;;;;;5046577;28;20191;-60
2021/03/27 16:38:24;;;;;;;1.27;0.93;;;;;;;;;;5081103;27;20185;-60
2021/03/27 16:41:09;;;;;;;1.27;0.47;;;;;;;;;;5052438;28;20678;-60
2021/03/27 16:43:39;;;;;;;5.03;1.23;;;;;;;;;;5044145;28;20290;-61
2021/03/27 16:46:18;;;;;;;1.20;0.27;;;;;;;;;;5053062;28;20186;-61
2021/03/27 16:48:44;;;;;;;2.53;0.40;;;;;;;;;;5046578;28;20207;-61
2021/03/27 16:51:22;;;;;;;0.40;0.30;;;;;;;;;;5047743;28;20671;-61
2021/03/27 16:54:06;;;;;;;1.03;0.47;;;;;;;;;;5043363;28;20190;-61
2021/03/27 16:56:44;;;;;;;0.93;0.50;;;;;;;;;;5050952;28;20804;-61
2021/03/27 16:59:43;;;;;;;0.27;0.23;;;;;;;;;;5050329;28;20617;-61
2021/03/27 17:02:10;;;;;;;0.30;0.30;;;;;;;;;;5025508;28;20193;-61
2021/03/27 17:04:54;;;;;;;0.40;0.10;;;;;;;;;;5048927;28;20621;-61
2021/03/27 17:07:27;;;;;;;0.50;0.40;;;;;;;;;;5046461;28;20171;-61
2021/03/27 17:10:12;;;;;;;0.57;0.33;;;;;;;;;;5045840;28;20225;-61
2021/03/27 17:12:44;;;;;;;3.83;0.43;;;;;;;;;;5046136;28;20522;-62
2021/03/27 17:15:18;;;;;;;1.93;0.20;;;;;;;;;;5047041;28;20259;-61
2021/03/27 17:17:50;;;;;;;7.77;1.03;;;;;;;;;;5049857;28;20171;-61
2021/03/27 17:20:29;;;;;;;1.10;0.40;;;;;;;;;;5049596;28;20518;-61
2021/03/27 17:23:14;;;;;;;2.37;0.23;;;;;;;;;;5040053;28;20187;-59
2021/03/27 17:26:02;;;;;;;0.73;0.50;;;;;;;;;;5048933;28;20305;-60
2021/03/27 17:28:48;;;;;;;0.47;0.47;;;;;;;;;;5042970;28;20234;-60
2021/03/27 17:31:33;;;;;;;0.70;0.70;;;;;;;;;;5046628;28;20204;-61
2021/03/27 17:34:12;;;;;;;5.60;0.37;;;;;;;;;;5052049;28;20593;-61
2021/03/27 17:36:57;;;;;;;0.57;0.20;;;;;;;;;;5042647;28;20192;-61
2021/03/27 17:39:31;;;;;;;0.13;0.13;;;;;;;;;;5040116;28;20198;-60
2021/03/27 17:42:21;;;;;;;0.97;0.63;;;;;;;;;;5046392;28;20186;-59
2021/03/27 17:44:53;;;;;;;0.83;0.40;;;;;;;;;;5016346;28;20395;-59
2021/03/27 17:47:30;;;;;;;0.50;0.20;;;;;;;;;;5043815;28;20225;-59
2021/03/27 17:50:04;;;;;;;16.43;2.80;;;;;;;;;;5038266;28;20472;-58
2021/03/27 17:52:36;;;;;;;3.53;0.20;;;;;;;;;;5040776;28;20757;-59
2021/03/27 17:55:06;;;;;;;0.43;0.10;;;;;;;;;;5046460;28;20268;-59
2021/03/27 17:57:38;;;;;;;0.87;0.30;;;;;;;;;;5058510;28;20575;-58
2021/03/27 18:00:11;;;;;;;2.13;0.33;;;;;;;;;;5048735;28;20693;-58
2021/03/27 18:02:38;;;;;;;0.87;0.33;;;;;;;;;;5049133;28;20605;-59
2021/03/27 18:05:10;;;;;;;1.60;1.10;;;;;;;;;;5045118;28;20190;-58
2021/03/27 18:07:36;;;;;;;3.23;1.73;;;;;;;;;;5044540;28;20229;-59
2021/03/27 18:10:06;;;;;;;3.90;0.83;;;;;;;;;;5050615;28;20637;-58
2021/03/27 18:12:36;;;;;;;10.40;0.30;;;;;;;;;;5043037;28;20229;-58
2021/03/27 18:15:14;;;;;;;1.47;1.47;;;;;;;;;;5048388;28;20193;-59
2021/03/27 18:17:41;;;;;;;1.43;0.50;;;;;;;;;;5054035;28;20192;-59
2021/03/27 18:20:17;;;;;;;4.33;1.00;;;;;;;;;;5056534;28;20190;-58
2021/03/27 18:22:50;;;;;;;4.73;1.30;;;;;;;;;;5051050;28;20182;-58
2021/03/27 18:25:17;;;;;;;3.60;0.53;;;;;;;;;;5057253;28;20188;-58
2021/03/27 18:27:47;;;;;;;5.73;2.27;;;;;;;;;;5056506;28;20910;-58
2021/03/27 18:30:22;;;;;;;2.10;0.20;;;;;;;;;;5053287;28;21153;-58
2021/03/27 18:32:49;;;;;;;0.73;0.50;;;;;;;;;;5056300;28;20498;-58
2021/03/27 18:35:28;;;;;;;0.00;0.00;;;;;;;;;;5056194;28;20187;-59
2021/03/27 18:37:57;;;;;;;4.90;0.87;;;;;;;;;;5055572;28;20219;-59
2021/03/27 18:40:28;;;;;;;0.23;0.10;;;;;;;;;;5058277;28;20188;-58
2021/03/27 18:42:56;;;;;;;2.13;0.87;;;;;;;;;;5057964;28;20183;-59
2021/03/27 18:45:32;;;;;;;4.93;0.33;;;;;;;;;;5055241;28;20274;-58
2021/03/27 18:48:10;;;;;;;0.10;0.10;;;;;;;;;;5060530;28;20179;-58
2021/03/27 18:50:41;;;;;;;1.60;0.20;;;;;;;;;;5056350;28;20192;-59
2021/03/27 18:53:12;;;;;;;4.60;0.40;;;;;;;;;;5046914;28;20187;-58
2021/03/27 18:55:40;;;;;;;0.40;0.40;;;;;;;;;;5055406;28;20191;-58
2021/03/27 18:58:08;;;;;;;0.27;0.20;;;;;;;;;;5053176;28;20190;-59
2021/03/27 19:00:37;;;;;;;4.10;1.13;;;;;;;;;;5043128;28;20172;-58
2021/03/27 19:03:14;;;;;;;0.20;0.20;;;;;;;;;;5044627;28;20191;-58
2021/03/27 19:05:47;;;;;;;0.10;0.10;;;;;;;;;;5056114;28;20315;-58
2021/03/27 19:08:14;;;;;;;1.07;0.63;;;;;;;;;;5046644;28;20188;-59
2021/03/27 19:10:48;;;;;;;0.20;0.20;;;;;;;;;;5052738;28;20282;-58
2021/03/27 19:13:18;;;;;;;1.00;0.43;;;;;;;;;;5043878;28;20184;-58
2021/03/27 19:15:47;;;;;;;7.20;1.03;;;;;;;;;;5051226;28;20191;-58
2021/03/27 19:18:25;;;;;;;0.00;0.00;;;;;;;;;;5046253;28;20224;-58
2021/03/27 19:21:01;;;;;;;0.10;0.10;;;;;;;;;;5057682;28;20704;-58